createdAt,value
2019-05-10T00:00:14.282Z,100404.09
2019-05-10T00:03:22.109Z,100401.62
2019-05-10T00:06:28.952Z,100400.61
2019-05-10T00:09:16.768Z,100396.77
2019-05-10T00:12:20.975Z,100401.00
2019-05-10T00:15:11.910Z,100405.73
2019-05-10T00:18:01.383Z,100402.87
2019-05-10T00:20:53.603Z,100407.95
2019-05-10T00:23:44.041Z,100404.61
2019-05-10T00:26:35.782Z,100414.69
2019-05-10T00:29:25.454Z,100414.52
2019-05-10T00:32:17.369Z,100418.15
2019-05-10T00:35:09.409Z,100426.78
2019-05-10T00:37:58.792Z,100431.13
2019-05-10T00:40:49.385Z,100436.09
2019-05-10T00:43:41.669Z,100438.59
2019-05-10T00:46:32.333Z,100441.94
2019-05-10T00:49:22.230Z,100440.34
2019-05-10T00:52:12.623Z,100439.56
2019-05-10T00:55:16.696Z,100436.23
2019-05-10T00:57:52.938Z,100446.67
2019-05-10T01:00:41.563Z,100453.86
2019-05-10T01:03:30.119Z,100452.69
2019-05-10T01:06:18.638Z,100453.28
2019-05-10T01:09:07.843Z,100463.33
2019-05-10T01:11:58.116Z,100471.46
2019-05-10T01:14:47.507Z,100477.80
2019-05-10T01:17:36.653Z,100485.16
2019-05-10T01:20:25.598Z,100486.59
2019-05-10T01:23:15.076Z,100485.46
2019-05-10T01:26:04.401Z,100490.03
2019-05-10T01:28:53.862Z,100491.12
2019-05-10T01:31:42.890Z,100505.91
2019-05-10T01:34:32.016Z,100503.83
2019-05-10T01:37:21.045Z,100502.29
2019-05-10T01:40:10.541Z,100502.48
2019-05-10T01:43:00.058Z,100509.28
2019-05-10T01:45:48.942Z,100514.34
2019-05-10T01:48:37.629Z,100514.05
2019-05-10T01:51:27.907Z,100516.44
2019-05-10T01:54:17.587Z,100526.39
2019-05-10T01:57:06.302Z,100531.45
2019-05-10T01:59:55.682Z,100534.71
2019-05-10T02:02:45.154Z,100539.77
2019-05-10T02:05:34.923Z,100548.06
2019-05-10T02:08:24.332Z,100547.17
2019-05-10T02:11:13.539Z,100551.78
2019-05-10T02:14:02.900Z,100555.98
2019-05-10T02:16:52.339Z,100552.91
2019-05-10T02:19:41.542Z,100556.63
2019-05-10T02:22:31.066Z,100561.13
2019-05-10T02:25:19.972Z,100564.85
2019-05-10T02:28:09.376Z,100565.43
2019-05-10T02:30:58.638Z,100572.67
2019-05-10T02:33:47.638Z,100576.78
2019-05-10T02:36:38.860Z,100582.72
2019-05-10T02:39:27.872Z,100583.27
2019-05-10T02:42:17.397Z,100590.53
2019-05-10T02:45:07.904Z,100597.77
2019-05-10T02:47:57.095Z,100607.72
2019-05-10T02:50:46.543Z,100602.47
2019-05-10T02:53:35.396Z,100612.28
2019-05-10T02:56:30.463Z,100617.36
2019-05-10T02:59:15.476Z,100623.75
2019-05-10T03:02:06.588Z,100624.78
2019-05-10T03:04:56.384Z,100632.81
2019-05-10T03:07:45.357Z,100640.08
2019-05-10T03:10:34.904Z,100642.81
2019-05-10T03:13:27.118Z,100645.12
2019-05-10T03:16:14.813Z,100644.33
2019-05-10T03:19:04.248Z,100650.16
2019-05-10T03:22:06.028Z,100648.92
2019-05-10T03:24:58.429Z,100652.53
2019-05-10T03:27:48.026Z,100653.47
2019-05-10T03:30:37.910Z,100656.33
2019-05-10T03:33:29.305Z,100664.84
2019-05-10T03:36:18.395Z,100665.78
2019-05-10T03:39:07.545Z,100676.97
2019-05-10T03:41:57.253Z,100682.86
2019-05-10T03:44:46.541Z,100679.91
2019-05-10T03:47:35.966Z,100690.61
2019-05-10T03:50:25.078Z,100692.97
2019-05-10T03:53:14.039Z,100700.11
2019-05-10T03:56:03.435Z,100698.86
2019-05-10T03:58:52.555Z,100699.84
2019-05-10T04:01:41.612Z,100702.11
2019-05-10T04:04:31.032Z,100699.98
2019-05-10T04:07:20.318Z,100704.08
2019-05-10T04:10:09.315Z,100709.52
2019-05-10T04:12:58.231Z,100718.02
2019-05-10T04:15:47.474Z,100715.44
2019-05-10T04:18:36.880Z,100724.80
2019-05-10T04:21:26.295Z,100731.08
2019-05-10T04:24:15.217Z,100740.04
2019-05-10T04:27:04.119Z,100734.38
2019-05-10T04:29:53.245Z,100737.14
2019-05-10T04:32:43.993Z,100746.05
2019-05-10T04:35:32.971Z,100751.48
2019-05-10T04:38:21.690Z,100745.33
2019-05-10T04:41:10.765Z,100752.98
2019-05-10T04:44:00.196Z,100756.11
2019-05-10T04:46:49.668Z,100759.67
2019-05-10T04:49:39.640Z,100761.14
2019-05-10T04:52:29.209Z,100771.84
2019-05-10T04:55:18.896Z,100774.14
2019-05-10T04:58:07.414Z,100774.59
2019-05-10T05:00:56.903Z,100775.08
2019-05-10T05:03:46.204Z,100780.91
2019-05-10T05:06:34.868Z,100786.71
2019-05-10T05:09:24.169Z,100784.04
2019-05-10T05:12:12.785Z,100786.31
2019-05-10T05:15:01.794Z,100792.06
2019-05-10T05:17:50.661Z,100798.34
2019-05-10T05:20:40.172Z,100791.29
2019-05-10T05:23:29.732Z,100800.64
2019-05-10T05:26:19.257Z,100806.93
2019-05-10T05:29:07.941Z,100806.93
2019-05-10T05:32:01.271Z,100823.37
2019-05-10T05:34:47.639Z,100826.81
2019-05-10T05:37:36.286Z,100831.22
2019-05-10T05:40:25.626Z,100831.62
2019-05-10T05:43:14.403Z,100831.99
2019-05-10T05:46:04.297Z,100837.73
2019-05-10T05:48:53.956Z,100835.06
2019-05-10T05:51:43.041Z,100842.16
2019-05-10T05:54:32.491Z,100845.22
2019-05-10T05:57:27.179Z,100841.98
2019-05-10T06:00:14.445Z,100846.84
2019-05-10T06:03:03.784Z,100857.55
2019-05-10T06:05:52.498Z,100858.42
2019-05-10T06:08:42.240Z,100861.88
2019-05-10T06:11:35.812Z,100864.95
2019-05-10T06:14:21.348Z,100868.80
2019-05-10T06:17:10.553Z,100868.31
2019-05-10T06:20:00.954Z,100875.31
2019-05-10T06:23:05.657Z,100882.80
2019-05-10T06:25:42.540Z,100882.23
2019-05-10T06:28:56.902Z,100886.56
2019-05-10T06:31:22.030Z,100893.56
2019-05-10T06:34:10.556Z,100902.76
2019-05-10T06:37:00.016Z,100910.22
2019-05-10T06:39:49.556Z,100907.86
2019-05-10T06:42:38.796Z,100915.88
2019-05-10T06:45:28.427Z,100920.70
2019-05-10T06:48:26.324Z,100933.10
2019-05-10T06:51:09.707Z,100936.17
2019-05-10T06:53:58.967Z,100937.03
2019-05-10T06:56:47.959Z,100950.81
2019-05-10T06:59:37.542Z,100953.41
2019-05-10T07:02:32.228Z,100954.66
2019-05-10T07:05:16.921Z,100962.15
2019-05-10T07:08:14.200Z,100958.45
2019-05-10T07:10:56.467Z,100969.92
2019-05-10T07:13:47.101Z,100975.19
2019-05-10T07:16:36.011Z,100973.77
2019-05-10T07:19:28.568Z,100977.25
2019-05-10T07:22:21.761Z,100982.44
2019-05-10T07:25:07.530Z,100984.95
2019-05-10T07:27:56.968Z,100983.04
2019-05-10T07:30:45.898Z,100986.92
2019-05-10T07:33:37.331Z,100997.45
2019-05-10T07:36:29.721Z,100992.39
2019-05-10T07:39:16.437Z,101001.54
2019-05-10T07:42:06.489Z,101000.12
2019-05-10T07:44:56.813Z,101008.75
2019-05-10T07:47:46.390Z,101012.14
2019-05-10T07:50:35.973Z,101010.22
2019-05-10T07:53:25.262Z,101025.14
2019-05-10T07:56:14.525Z,101024.12
2019-05-10T07:59:03.867Z,101026.55
2019-05-10T08:01:52.661Z,101028.28
2019-05-10T08:04:41.587Z,101036.14
2019-05-10T08:07:31.082Z,101037.80
2019-05-10T08:10:21.475Z,101034.02
2019-05-10T08:13:15.439Z,101034.33
2019-05-10T08:16:05.540Z,101029.20
2019-05-10T08:18:55.771Z,101044.16
2019-05-10T08:21:42.861Z,101048.00
2019-05-10T08:24:32.735Z,101048.77
2019-05-10T08:27:23.006Z,101054.92
2019-05-10T08:30:25.192Z,101052.08
2019-05-10T08:33:09.477Z,101060.43
2019-05-10T08:36:55.031Z,101058.03
2019-05-10T08:39:48.957Z,101066.38
2019-05-10T08:42:45.548Z,101074.56
2019-05-10T08:45:26.354Z,101082.91
2019-05-10T08:48:15.299Z,101080.45
2019-05-10T08:51:07.522Z,101084.22
2019-05-10T08:53:58.129Z,101083.36
2019-05-10T08:56:46.700Z,101082.56
2019-05-10T08:59:35.858Z,101085.28
2019-05-10T09:02:29.318Z,101095.08
2019-05-10T09:05:20.983Z,101090.08
2019-05-10T09:08:13.659Z,101100.75
2019-05-10T09:10:57.525Z,101104.81
2019-05-10T09:13:47.201Z,101104.00
2019-05-10T09:16:43.459Z,101107.66
2019-05-10T09:19:36.134Z,101112.61
2019-05-10T09:22:17.688Z,101109.59
2019-05-10T09:25:06.604Z,101120.36
2019-05-10T09:27:55.769Z,101121.73
2019-05-10T09:30:56.436Z,101130.20
2019-05-10T09:33:34.971Z,101133.41
2019-05-10T09:36:30.988Z,101137.55
2019-05-10T09:39:21.440Z,101138.61
2019-05-10T09:42:09.901Z,101141.51
2019-05-10T09:44:56.966Z,101141.33
2019-05-10T09:47:46.171Z,101144.80
2019-05-10T09:50:44.391Z,101158.13
2019-05-10T09:53:27.526Z,101155.36
2019-05-10T09:59:12.310Z,101162.37
2019-05-10T10:02:05.077Z,101169.45
2019-05-10T10:04:52.567Z,101168.50
2019-05-10T10:07:41.523Z,101178.66
2019-05-10T10:10:32.528Z,101172.34
2019-05-10T10:13:39.074Z,101174.08
2019-05-10T10:16:14.696Z,101173.14
2019-05-10T10:19:02.856Z,101176.19
2019-05-10T10:21:51.783Z,101172.45
2019-05-10T10:24:41.135Z,101173.25
2019-05-10T10:27:34.530Z,101174.50
2019-05-10T10:30:21.876Z,101175.16
2019-05-10T10:33:17.475Z,101178.84
2019-05-10T10:36:04.732Z,101173.00
2019-05-10T10:38:51.712Z,101181.38
2019-05-10T10:41:40.350Z,101171.39
2019-05-10T10:44:29.451Z,101175.72
2019-05-10T10:47:22.930Z,101174.61
2019-05-10T10:50:13.495Z,101176.73
2019-05-10T10:53:00.181Z,101178.08
2019-05-10T10:55:54.958Z,101173.66
2019-05-10T10:58:39.742Z,101178.17
2019-05-10T11:01:45.704Z,101181.91
2019-05-10T11:04:20.435Z,101184.00
2019-05-10T11:07:11.109Z,101181.14
2019-05-10T11:10:14.342Z,101175.66
2019-05-10T11:12:56.180Z,101181.70
2019-05-10T11:15:42.736Z,101182.28
2019-05-10T11:18:32.094Z,101178.98
2019-05-10T11:21:23.441Z,101174.05
2019-05-10T11:24:17.929Z,101181.98
2019-05-10T11:27:07.341Z,101188.66
2019-05-10T11:29:55.175Z,101188.38
2019-05-10T11:32:45.374Z,101175.91
2019-05-10T11:35:35.358Z,101172.39
2019-05-10T11:38:24.716Z,101177.70
2019-05-10T11:41:21.335Z,101176.83
2019-05-10T11:44:09.056Z,101174.86
2019-05-10T11:46:56.918Z,101174.80
2019-05-10T11:49:46.929Z,101177.45
2019-05-10T11:52:36.689Z,101181.27
2019-05-10T11:55:25.790Z,101176.05
2019-05-10T11:58:15.188Z,101182.10
2019-05-10T12:01:14.791Z,101181.00
2019-05-10T12:03:56.980Z,101192.45
2019-05-10T12:06:49.961Z,101198.50
2019-05-10T12:09:36.663Z,101203.30
2019-05-10T12:12:45.247Z,101200.38
2019-05-10T12:15:25.197Z,101206.67
2019-05-10T12:18:14.898Z,101206.52
2019-05-10T12:21:09.347Z,101213.08
2019-05-10T12:23:56.008Z,101222.06
2019-05-10T12:29:34.900Z,101226.31
2019-05-10T12:32:26.942Z,101224.20
2019-05-10T12:35:14.408Z,101224.91
2019-05-10T12:38:03.037Z,101230.37
2019-05-10T12:40:52.456Z,101232.59
2019-05-10T12:43:43.606Z,101226.36
2019-05-10T12:46:31.910Z,101236.94
2019-05-10T12:49:21.436Z,101225.88
2019-05-10T12:52:14.331Z,101232.05
2019-05-10T12:55:02.259Z,101226.91
2019-05-10T12:57:53.628Z,101234.39
2019-05-10T13:00:52.687Z,101231.45
2019-05-10T13:03:41.553Z,101236.73
2019-05-10T13:06:33.695Z,101247.81
2019-05-10T13:09:38.702Z,101247.11
2019-05-10T13:12:15.120Z,101251.05
2019-05-10T13:15:07.335Z,101253.63
2019-05-10T13:17:57.609Z,101256.71
2019-05-10T13:20:49.244Z,101254.86
2019-05-10T13:23:41.767Z,101253.00
2019-05-10T13:26:38.432Z,101259.77
2019-05-10T13:29:29.723Z,101261.88
2019-05-10T13:32:20.598Z,101266.91
2019-05-10T13:35:15.120Z,101265.70
2019-05-10T13:38:08.254Z,101268.89
2019-05-10T13:40:58.808Z,101268.05
2019-05-10T13:43:48.732Z,101271.87
2019-05-10T13:46:38.597Z,101274.33
2019-05-10T13:49:28.519Z,101273.81
2019-05-10T13:52:19.013Z,101277.39
2019-05-10T13:55:09.475Z,101278.38
2019-05-10T13:57:59.640Z,101277.66
2019-05-10T14:00:52.732Z,101286.30
2019-05-10T14:03:48.117Z,101278.66
2019-05-10T14:06:35.630Z,101282.78
2019-05-10T14:09:25.026Z,101285.50
2019-05-10T14:12:16.162Z,101290.80
2019-05-10T14:15:09.823Z,101296.86
2019-05-10T14:17:56.519Z,101291.66
2019-05-10T14:20:45.677Z,101295.00
2019-05-10T14:23:35.140Z,101291.45
2019-05-10T14:26:24.840Z,101290.94
2019-05-10T14:29:14.297Z,101291.41
2019-05-10T14:32:03.354Z,101286.24
2019-05-10T14:34:52.501Z,101283.78
2019-05-10T14:37:41.562Z,101291.30
2019-05-10T14:40:31.003Z,101287.70
2019-05-10T14:43:20.417Z,101289.44
2019-05-10T14:46:13.729Z,101289.27
2019-05-10T14:49:08.816Z,101288.59
2019-05-10T14:51:59.117Z,101286.45
2019-05-10T14:54:44.125Z,101281.28
2019-05-10T14:57:33.257Z,101281.97
2019-05-10T15:00:23.375Z,101285.30
2019-05-10T15:03:13.689Z,101279.47
2019-05-10T15:06:03.617Z,101277.36
2019-05-10T15:08:53.867Z,101284.72
2019-05-10T15:11:43.687Z,101286.57
2019-05-10T15:14:34.227Z,101289.23
2019-05-10T15:17:23.058Z,101289.46
2019-05-10T15:20:12.221Z,101288.84
2019-05-10T15:23:01.855Z,101287.53
2019-05-10T15:25:56.990Z,101292.58
2019-05-10T15:28:46.184Z,101293.23
2019-05-10T15:31:35.631Z,101291.37
2019-05-10T15:34:25.632Z,101289.55
2019-05-10T15:37:17.776Z,101292.55
2019-05-10T15:40:07.958Z,101289.64
2019-05-10T15:42:58.271Z,101288.72
2019-05-10T15:45:52.574Z,101292.73
2019-05-10T15:48:41.930Z,101292.37
2019-05-10T15:51:36.344Z,101292.51
2019-05-10T15:54:20.062Z,101295.64
2019-05-10T15:57:08.922Z,101292.69
2019-05-10T15:59:59.207Z,101290.84
2019-05-10T16:02:53.112Z,101289.03
2019-05-10T16:08:30.294Z,101291.66
2019-05-10T16:11:20.809Z,101293.84
2019-05-10T16:14:09.936Z,101298.70
2019-05-10T16:16:59.401Z,101295.22
2019-05-10T16:19:51.022Z,101297.70
2019-05-10T16:22:40.001Z,101302.06
2019-05-10T16:25:32.852Z,101298.78
2019-05-10T16:28:20.850Z,101296.50
2019-05-10T16:31:09.491Z,101291.31
2019-05-10T16:33:58.543Z,101291.57
2019-05-10T16:36:47.865Z,101290.47
2019-05-10T16:39:36.717Z,101295.14
2019-05-10T16:42:27.906Z,101296.77
2019-05-10T16:45:16.885Z,101296.02
2019-05-10T16:48:06.283Z,101296.76
2019-05-10T16:50:56.333Z,101297.84
2019-05-10T16:53:45.936Z,101295.75
2019-05-10T16:56:35.662Z,101294.30
2019-05-10T16:59:29.882Z,101287.64
2019-05-10T17:02:16.101Z,101285.22
2019-05-10T17:05:09.804Z,101290.75
2019-05-10T17:07:58.917Z,101285.83
2019-05-10T17:10:46.520Z,101293.02
2019-05-10T17:13:36.434Z,101293.72
2019-05-10T17:16:26.336Z,101299.54
2019-05-10T17:19:15.786Z,101291.12
2019-05-10T17:22:05.111Z,101293.97
2019-05-10T17:24:57.054Z,101294.36
2019-05-10T17:27:44.879Z,101292.89
2019-05-10T17:30:33.676Z,101291.70
2019-05-10T17:33:22.831Z,101290.02
2019-05-10T17:36:14.599Z,101290.42
2019-05-10T17:39:03.467Z,101288.59
2019-05-10T17:41:52.563Z,101292.86
2019-05-10T17:44:43.708Z,101293.08
2019-05-10T17:47:33.485Z,101289.08
2019-05-10T17:50:22.978Z,101299.13
2019-05-10T17:53:12.101Z,101297.44
2019-05-10T17:56:02.977Z,101310.73
2019-05-10T17:58:52.892Z,101305.45
2019-05-10T18:01:42.221Z,101309.28
2019-05-10T18:04:31.211Z,101310.53
2019-05-10T18:07:20.775Z,101310.52
2019-05-10T18:10:10.171Z,101312.95
2019-05-10T18:13:03.348Z,101315.72
2019-05-10T18:15:51.234Z,101312.48
2019-05-10T18:18:46.253Z,101313.89
2019-05-10T18:21:31.668Z,101315.45
2019-05-10T18:24:20.554Z,101319.06
2019-05-10T18:27:09.758Z,101315.95
2019-05-10T18:30:02.180Z,101320.91
2019-05-10T18:32:51.858Z,101319.58
2019-05-10T18:35:40.789Z,101324.41
2019-05-10T18:38:30.815Z,101330.84
2019-05-10T18:41:20.374Z,101334.80
2019-05-10T18:44:14.288Z,101335.50
2019-05-10T18:47:00.822Z,101339.84
2019-05-10T18:49:50.322Z,101337.99
2019-05-10T18:52:39.479Z,101339.34
2019-05-10T18:55:28.293Z,101340.64
2019-05-10T18:58:23.256Z,101353.05
2019-05-10T19:01:08.938Z,101356.56
2019-05-10T19:03:57.869Z,101361.07
2019-05-10T19:06:49.892Z,101367.17
2019-05-10T19:09:37.517Z,101364.81
2019-05-10T19:12:27.459Z,101359.76
2019-05-10T19:15:17.183Z,101356.51
2019-05-10T19:18:06.512Z,101358.54
2019-05-10T19:20:55.533Z,101359.75
2019-05-10T19:23:44.406Z,101358.19
2019-05-10T19:26:33.731Z,101366.94
2019-05-10T19:29:22.257Z,101374.33
2019-05-10T19:32:18.359Z,101370.09
2019-05-10T19:35:01.926Z,101362.20
2019-05-10T19:37:50.573Z,101351.63
2019-05-10T19:40:39.905Z,101353.27
2019-05-10T19:43:29.013Z,101357.75
2019-05-10T19:46:18.006Z,101362.45
2019-05-10T19:49:07.452Z,101366.16
2019-05-10T19:51:57.955Z,101369.02
2019-05-10T19:54:47.570Z,101369.52
2019-05-10T19:57:37.191Z,101361.61
2019-05-10T20:00:26.411Z,101358.59
2019-05-10T20:03:15.737Z,101369.00
2019-05-10T20:06:04.640Z,101364.63
2019-05-10T20:08:53.963Z,101370.45
2019-05-10T20:11:43.505Z,101364.63
2019-05-10T20:14:32.290Z,101365.17
2019-05-10T20:17:21.339Z,101371.34
2019-05-10T20:20:11.763Z,101370.05
2019-05-10T20:23:01.536Z,101366.05
2019-05-10T20:25:50.896Z,101377.11
2019-05-10T20:28:40.256Z,101370.83
2019-05-10T20:31:30.664Z,101368.09
2019-05-10T20:34:23.907Z,101373.77
2019-05-10T20:37:10.857Z,101379.47
2019-05-10T20:40:00.118Z,101373.16
2019-05-10T20:42:49.567Z,101377.03
2019-05-10T20:45:38.519Z,101371.97
2019-05-10T20:48:27.526Z,101368.36
2019-05-10T20:51:16.856Z,101369.55
2019-05-10T20:54:05.943Z,101366.79
2019-05-10T20:56:55.530Z,101372.48
2019-05-10T20:59:45.466Z,101374.11
2019-05-10T21:02:35.277Z,101374.44
2019-05-10T21:05:24.844Z,101366.72
2019-05-10T21:08:16.912Z,101363.88
2019-05-10T21:11:04.834Z,101371.35
2019-05-10T21:13:57.799Z,101365.83
2019-05-10T21:16:45.533Z,101369.68
2019-05-10T21:19:34.746Z,101364.64
2019-05-10T21:22:24.159Z,101360.05
2019-05-10T21:25:14.594Z,101357.59
2019-05-10T21:28:05.307Z,101352.52
2019-05-10T21:30:54.945Z,101350.16
2019-05-10T21:33:44.900Z,101354.41
2019-05-10T21:36:33.904Z,101351.14
2019-05-10T21:39:23.512Z,101353.09
2019-05-10T21:42:15.174Z,101350.27
2019-05-10T21:45:05.906Z,101350.50
2019-05-10T21:47:55.793Z,101358.28
2019-05-10T21:50:47.707Z,101354.97
2019-05-10T21:53:37.036Z,101357.92
2019-05-10T21:56:27.346Z,101360.75
2019-05-10T21:59:18.392Z,101363.23
2019-05-10T22:02:07.927Z,101355.95
2019-05-10T22:04:57.162Z,101353.05
2019-05-10T22:07:46.917Z,101354.27
2019-05-10T22:10:36.864Z,101348.25
2019-05-10T22:13:25.862Z,101352.00
2019-05-10T22:16:16.009Z,101352.67
2019-05-10T22:19:07.770Z,101352.47
2019-05-10T22:21:57.381Z,101355.77
2019-05-10T22:24:47.098Z,101353.38
2019-05-10T22:27:36.709Z,101355.79
2019-05-10T22:30:26.802Z,101358.20
2019-05-10T22:33:17.529Z,101356.59
2019-05-10T22:36:07.049Z,101370.09
2019-05-10T22:39:06.644Z,101364.48
2019-05-10T22:41:46.647Z,101365.55
2019-05-10T22:44:35.759Z,101365.28
2019-05-10T22:47:25.625Z,101359.66
2019-05-10T22:50:15.055Z,101360.27
2019-05-10T22:53:04.413Z,101358.19
2019-05-10T22:55:54.388Z,101364.59
2019-05-10T22:58:43.118Z,101358.46
2019-05-10T23:01:35.316Z,101364.86
2019-05-10T23:04:26.657Z,101362.70
2019-05-10T23:07:16.090Z,101361.98
2019-05-10T23:10:04.988Z,101357.63
2019-05-10T23:12:54.167Z,101360.92
2019-05-10T23:15:43.635Z,101356.16
2019-05-10T23:18:33.030Z,101354.95
2019-05-10T23:21:22.112Z,101357.76
2019-05-10T23:24:13.303Z,101357.89
2019-05-10T23:27:02.866Z,101356.72
2019-05-10T23:29:52.280Z,101355.45
2019-05-10T23:32:42.405Z,101351.98
2019-05-10T23:35:31.160Z,101355.20
2019-05-10T23:38:20.539Z,101350.47
2019-05-10T23:41:09.477Z,101359.05
2019-05-10T23:43:58.920Z,101353.78
2019-05-10T23:46:47.673Z,101355.73
2019-05-10T23:49:37.313Z,101350.95
2019-05-10T23:52:26.704Z,101347.94
2019-05-10T23:55:16.420Z,101346.26
2019-05-10T23:58:05.794Z,101339.72
